This is the latest recevied weather packets stored in our database for station/object WD7CGF. If no packets are shown the sender has not sent any weather packets the latest 10 day(s).
| Time | Temp. | Humidity | Pressure | Rain* | Wind** | Luminosity | Snow |
|---|---|---|---|---|---|---|---|
| 1777149502 | 14.44° C | 30% | 1009.8 hPa | 0 mm | - | - | - |
| 1777148887 | 14.44° C | 34% | 1010 hPa | 0 mm | - | - | - |
| 1777148292 | 15° C | 31% | 1010 hPa | 0 mm | - | - | - |
| 1777147698 | 15° C | 32% | 1010.1 hPa | 0 mm | - | - | - |
| 1777147097 | 14.44° C | 33% | 1010.2 hPa | 0 mm | - | - | - |
| 1777146488 | 15° C | 32% | 1010.2 hPa | 0 mm | - | - | - |
| 1777145893 | 13.89° C | 34% | 1010.5 hPa | 0 mm | - | - | - |
| 1777145284 | 13.89° C | 34% | 1010.8 hPa | 0 mm | - | - | - |
| 1777144688 | 13.89° C | 32% | 1010.8 hPa | 0 mm | - | - | - |
| 1777144098 | 13.89° C | 32% | 1010.7 hPa | 0 mm | - | - | - |
| 1777143488 | 13.89° C | 33% | 1011.1 hPa | 0 mm | - | - | - |
| 1777142883 | 13.33° C | 37% | 1011.1 hPa | 0 mm | - | - | - |
| 1777142292 | 13.33° C | 37% | 1011.4 hPa | 0 mm | - | - | - |
| 1777141694 | 12.78° C | 39% | 1011.4 hPa | 0 mm | - | - | - |
| 1777141082 | 12.78° C | 40% | 1011.4 hPa | 0 mm | - | - | - |
| 1777140492 | 12.22° C | 40% | 1011.6 hPa | 0 mm | - | - | - |
| 1777139900 | 12.78° C | 41% | 1011.9 hPa | 0 mm | - | - | - |
| 1777139305 | 11.67° C | 50% | 1011.9 hPa | 0 mm | - | - | - |
| 1777138098 | 10° C | 53% | 1012.4 hPa | 0 mm | - | - | - |
| 1777136887 | 9.44° C | 55% | 1012.3 hPa | 0 mm | - | - | - |
| 1777136293 | 9.44° C | 58% | 1012.5 hPa | 0 mm | - | - | - |
| 1777135697 | 8.89° C | 57% | 1012.5 hPa | 0 mm | - | - | - |
| 1777135088 | 8.33° C | 58% | 1012.7 hPa | 0 mm | - | - | - |
| 1777134497 | 7.22° C | 60% | 1013 hPa | 0 mm | - | - | - |
| 1777133885 | 6.67° C | 63% | 1013 hPa | 0 mm | - | - | - |
* Rain since midnight (hover to see other rain measurements)
** Current wind speed in m/s (hover to see current wind gust speed)